»·PEaware :: N3539W 2O7-3L2

N3539W :: 2O7-3L2

FLIGHT INFORMATION

Flight Status: Arrived
Operator: Privately registered:
United States
More flights under this callsign
Pilot: Joerg P. (23850)
Aircraft: PIPER PA-32 SARATOGA
(PA32)
More flights by this aircraft type
Origin: 2O7 Independence
United States
Destination: 3L2 Sky Ranch
United States
More flights between these airports :: More routes between these airports
Route:
File this flight plan on PilotEdge
Remarks:
Altitude:
(Current/Filed)
7,500ft
Speed:
(Current/Filed)
130kts
Departed: 19-Sep-20 05:43 PM
Arrived: 19-Sep-20 06:58 PM
Distance/Time
Traveled:
139nm/1:15
Distance/Time
To Go:
Arrived

Flight Plot

Page will automatically refresh every two minutes.


Map Options




Map Legend


Flown Route
Filed Route
Departure Airport
Arrival Airport
Navaid (VOR, NDB)
Fix

Horizontal Profiles

Position Reports

Time Latitude Longitude Heading Altitude Ground
Speed
19-Sep-20 17:38 36.809898 -118.203540 83 3906ft 0kts
19-Sep-20 17:39 36.809898 -118.203540 83 3906ft 0kts
19-Sep-20 17:40 36.809898 -118.203540 83 3906ft 0kts
19-Sep-20 17:41 36.810037 -118.202964 65 3903ft 0kts
19-Sep-20 17:42 36.812180 -118.202775 338 3897ft 56kts
19-Sep-20 17:43 36.839410 -118.213137 358 4339ft 120kts
19-Sep-20 17:44 36.870795 -118.207759 4 5275ft 110kts
19-Sep-20 17:45 36.901110 -118.202446 4 6165ft 110kts
19-Sep-20 17:46 36.931676 -118.206477 341 6970ft 113kts
19-Sep-20 17:47 36.962495 -118.211350 4 7719ft 112kts
19-Sep-20 17:48 36.989912 -118.206238 7 8214ft 119kts
19-Sep-20 17:49 37.022328 -118.197298 18 8773ft 119kts
19-Sep-20 17:50 37.052014 -118.176942 31 9294ft 122kts
19-Sep-20 17:51 37.081098 -118.150749 43 9514ft 137kts
19-Sep-20 17:52 37.102438 -118.108445 70 9435ft 143kts
19-Sep-20 17:53 37.111756 -118.060076 91 9434ft 146kts
19-Sep-20 17:54 37.110483 -118.009775 93 9413ft 148kts
19-Sep-20 17:55 37.102023 -117.960486 99 9445ft 145kts
19-Sep-20 17:56 37.098486 -117.909797 106 9396ft 149kts
19-Sep-20 17:57 37.095035 -117.859766 81 9445ft 146kts
19-Sep-20 17:59 37.099036 -117.808788 87 9448ft 145kts
19-Sep-20 18:00 37.097124 -117.757957 97 9448ft 146kts
19-Sep-20 18:01 37.087900 -117.708614 103 9459ft 146kts
19-Sep-20 18:02 37.080082 -117.658709 92 9471ft 147kts
19-Sep-20 18:03 37.075467 -117.607669 103 9463ft 147kts
19-Sep-20 18:04 37.056434 -117.563249 130 9476ft 145kts
19-Sep-20 18:05 37.029156 -117.526154 134 9488ft 145kts
19-Sep-20 18:06 37.001501 -117.489098 134 9461ft 146kts
19-Sep-20 18:07 36.973356 -117.453054 136 9486ft 145kts
19-Sep-20 18:08 36.949895 -117.421654 128 9519ft 144kts
19-Sep-20 18:09 36.927659 -117.379605 119 9523ft 146kts
19-Sep-20 18:10 36.910078 -117.333546 117 9498ft 149kts
19-Sep-20 18:11 36.891444 -117.288044 116 9572ft 144kts
19-Sep-20 18:12 36.874341 -117.242085 116 9593ft 147kts
19-Sep-20 18:13 36.851164 -117.199345 127 9463ft 151kts
19-Sep-20 18:14 36.828305 -117.156641 128 9490ft 147kts
19-Sep-20 18:15 36.804368 -117.115565 128 9513ft 146kts
19-Sep-20 18:16 36.780527 -117.074217 128 9524ft 146kts
19-Sep-20 18:17 36.758477 -117.030841 125 9500ft 147kts
19-Sep-20 18:18 36.733402 -116.991083 123 9541ft 146kts
19-Sep-20 18:18 36.717547 -116.953236 118 9559ft 148kts
19-Sep-20 18:20 36.694625 -116.900473 128 9566ft 147kts
19-Sep-20 18:21 36.669057 -116.860138 133 9514ft 148kts
19-Sep-20 18:21 36.646680 -116.828060 135 9518ft 147kts
19-Sep-20 18:22 36.618632 -116.790422 133 9492ft 148kts
19-Sep-20 18:23 36.593960 -116.748982 128 9500ft 148kts
19-Sep-20 18:24 36.568053 -116.709762 135 9538ft 146kts
19-Sep-20 18:25 36.544265 -116.668471 124 9613ft 147kts
19-Sep-20 18:26 36.522386 -116.625285 134 9563ft 153kts
19-Sep-20 18:27 36.491701 -116.588262 145 9434ft 149kts
19-Sep-20 18:28 36.459102 -116.555710 142 9350ft 148kts
19-Sep-20 18:29 36.426297 -116.523536 149 9132ft 155kts
19-Sep-20 18:30 36.397752 -116.479984 116 8586ft 168kts
19-Sep-20 18:31 36.378394 -116.426644 120 7996ft 173kts
19-Sep-20 18:32 36.352416 -116.378048 133 7428ft 165kts
19-Sep-20 18:33 36.323512 -116.335422 132 7042ft 161kts
19-Sep-20 18:34 36.296535 -116.290122 129 6530ft 163kts
19-Sep-20 18:35 36.270785 -116.244000 132 6028ft 163kts
19-Sep-20 18:36 36.242141 -116.202091 136 5679ft 156kts
19-Sep-20 18:37 36.212744 -116.163222 142 5422ft 150kts
19-Sep-20 18:38 36.183545 -116.127786 140 5435ft 147kts
19-Sep-20 18:39 36.155700 -116.090352 134 5412ft 148kts
19-Sep-20 18:40 36.129688 -116.050826 138 5387ft 149kts
19-Sep-20 18:41 36.098002 -116.018894 148 5341ft 146kts
19-Sep-20 18:42 36.067599 -115.986997 129 5432ft 147kts
19-Sep-20 18:43 36.046249 -115.942954 131 5483ft 149kts
19-Sep-20 18:44 36.016347 -115.908330 147 5433ft 148kts
19-Sep-20 18:45 35.982597 -115.875303 147 4900ft 156kts
19-Sep-20 18:46 35.948355 -115.841676 141 4391ft 158kts
19-Sep-20 18:47 35.916400 -115.805195 134 4021ft 154kts
19-Sep-20 18:48 35.886954 -115.767318 137 3750ft 151kts
19-Sep-20 18:49 35.859546 -115.729733 121 3699ft 146kts
19-Sep-20 18:50 35.840314 -115.684563 121 3605ft 147kts
19-Sep-20 18:51 35.815495 -115.644512 133 3536ft 148kts
19-Sep-20 18:52 35.781072 -115.621119 131 3545ft 141kts
19-Sep-20 18:53 35.797440 -115.604307 251 2984ft 114kts
19-Sep-20 18:54 35.791422 -115.633751 187 2917ft 89kts
19-Sep-20 18:55 35.796564 -115.606279 42 3419ft 103kts
19-Sep-20 18:56 35.804105 -115.616764 223 2714ft 86kts
19-Sep-20 18:57 35.797091 -115.624230 138 2587ft 0kts
19-Sep-20 18:58 35.797091 -115.624230 138 2587ft 0kts
19-Sep-20 18:59 35.797091 -115.624230 138 2587ft 0kts
19-Sep-20 19:00 35.797091 -115.624230 138 2587ft 0kts

Navigation Log

Ident Type
Flight plan parsing failed, navigation log unavailable